Swansea, Tasmania

1:54 PM AEDT on December 22, 2014 (GMT +1100)
The Grange Hills Swansea | Change Station
CLOSE
Current Station
Personal Weather Station
Location: Swansea, TASMANIA
Elevation: 79 ft
Nearby Weather Stations

Elev 79 ft 42.04 °S, 148.08 °E | Updated 1 minute ago

Mostly Cloudy
Mostly Cloudy
73.2 °F
Feels Like 77 °F
N
4.0
Wind Variable Wind from NNE
Gusts 8.0 mph

Today
High -- | Low -- °F
--% Chance of Precip.
Yesterday
High -- | Low -- °F
Precip. -- in
5:28 AM 8:43 PM
New Moon, 0% visible
Pressure 29.95 in
Visibility 6.2 miles
Clouds Few 3500 ft
Mostly Cloudy 28000 ft
Heat Index 77 °F
Dew Point 57 °F
Humidity 57%
Rainfall 0.00 in
Snow Depth Not available.
UV 7 out of 12
Pollen Not available.
Air Quality Not available.
Flu Activity Not available.
METAR YMHB 220230Z 14010KT 9999 FEW035 BKN280 21/12 Q1014

More Conditions Fewer Conditions

Pressure 29.95 in
Visibility 6.2 miles
Clouds Few 3500 ft
Mostly Cloudy 28000 ft
Heat Index 77 °F
Dew Point 57 °F
Humidity 57%
Rainfall 0.00 in
Snow Depth Not available.
UV 7 out of 12
Pollen Not available.
Air Quality Not available.
Flu Activity Not available.
METAR YMHB 220230Z 14010KT 9999 FEW035 BKN280 21/12 Q1014

More Conditions Fewer Conditions

10-Day Weather Forecast

Almanac

Astronomy

Dec. 22, 2014 Rise Set
Actual Time
Civil Twilight
Nautical Twilight
Astronomical Twilight
Moon
Length of Visible Light
Length of Day
Tomorrow will be .
, % of the Moon is Illuminated

Today's Extremes

Country Highs Country Lows

Community

WunderPhotos

Upload Photos

1,779,528 photos uploaded!

WunderBlogs® & News

Nearby

Air Quality

  Air Quality AQ Index Pollutant
Not available.

Snow Depth

Station Depth Elevation

Earthquake Activity

City Distance Mag. Time & Date
Minimum magnitude displayed is 2.5.

Coastal Water Temperatures

Place Temperature

Nearby Weather Stations